createdAt,value
2023-04-16T00:00:26.345Z,100.00
2023-04-16T00:03:33.022Z,100.00
2023-04-16T00:06:41.085Z,100.00
2023-04-16T00:09:47.675Z,100.00
2023-04-16T00:12:53.921Z,100.00
2023-04-16T00:16:00.557Z,100.00
2023-04-16T00:19:07.198Z,100.00
2023-04-16T00:22:14.869Z,100.00
2023-04-16T00:25:21.786Z,100.00
2023-04-16T00:28:28.629Z,100.00
2023-04-16T00:31:37.989Z,100.00
2023-04-16T00:34:44.349Z,100.00
2023-04-16T00:37:52.236Z,100.00
2023-04-16T00:40:58.970Z,100.00
2023-04-16T00:44:05.291Z,100.00
2023-04-16T00:47:11.533Z,100.00
2023-04-16T00:50:18.286Z,100.00
2023-04-16T00:53:26.065Z,100.00
2023-04-16T00:56:33.354Z,100.00
2023-04-16T00:59:39.713Z,100.00
2023-04-16T01:02:46.671Z,100.00
2023-04-16T01:05:52.891Z,100.00
2023-04-16T01:09:00.824Z,100.00
2023-04-16T01:12:06.991Z,100.00
2023-04-16T01:15:13.605Z,100.00
2023-04-16T01:18:21.275Z,100.00
2023-04-16T01:21:29.174Z,100.00
2023-04-16T01:24:36.634Z,100.00
2023-04-16T01:27:43.022Z,100.00
2023-04-16T01:30:49.352Z,100.00
2023-04-16T01:33:55.845Z,100.00
2023-04-16T01:37:05.047Z,100.00
2023-04-16T01:40:12.144Z,100.00
2023-04-16T01:43:18.721Z,100.00
2023-04-16T01:46:28.917Z,100.00
2023-04-16T01:49:36.613Z,100.00
2023-04-16T01:52:44.535Z,100.00
2023-04-16T01:55:50.980Z,100.00
2023-04-16T01:58:57.174Z,100.00
2023-04-16T02:02:07.912Z,100.00
2023-04-16T02:05:14.401Z,100.00
2023-04-16T02:08:22.115Z,100.00
2023-04-16T02:11:28.236Z,100.00
2023-04-16T02:14:35.036Z,100.00
2023-04-16T02:17:41.478Z,100.00
2023-04-16T02:20:49.692Z,100.00
2023-04-16T02:23:57.655Z,100.00
2023-04-16T02:27:03.965Z,100.00
2023-04-16T02:30:11.519Z,100.00
2023-04-16T02:33:17.839Z,100.00
2023-04-16T02:36:24.205Z,100.00
2023-04-16T02:39:31.699Z,100.00
2023-04-16T02:42:38.060Z,100.00
2023-04-16T02:45:44.918Z,100.00
2023-04-16T02:48:51.005Z,100.00
2023-04-16T02:51:57.313Z,100.00
2023-04-16T02:55:04.900Z,100.00
2023-04-16T02:58:10.844Z,100.00
2023-04-16T03:01:18.306Z,100.00
2023-04-16T03:04:24.477Z,100.00
2023-04-16T03:07:30.399Z,100.00
2023-04-16T03:10:38.042Z,100.00
2023-04-16T03:13:45.125Z,100.00
2023-04-16T03:16:51.375Z,100.00
2023-04-16T03:19:57.730Z,100.00
2023-04-16T03:23:03.770Z,100.00
2023-04-16T03:26:11.701Z,100.00
2023-04-16T03:29:18.083Z,100.00
2023-04-16T03:32:24.466Z,100.00
2023-04-16T03:35:30.552Z,100.00
2023-04-16T03:38:36.972Z,100.00
2023-04-16T03:41:44.588Z,100.00
2023-04-16T03:44:51.272Z,100.00
2023-04-16T03:47:57.378Z,100.00
2023-04-16T03:51:03.341Z,100.00
2023-04-16T03:54:09.623Z,100.00
2023-04-16T03:57:17.185Z,100.00
2023-04-16T04:00:23.368Z,100.00
2023-04-16T04:03:29.744Z,100.00
2023-04-16T04:06:35.899Z,100.00
2023-04-16T04:09:42.180Z,100.00
2023-04-16T04:12:49.846Z,100.00
2023-04-16T04:15:56.738Z,100.00
2023-04-16T04:19:02.898Z,100.00
2023-04-16T04:22:09.216Z,100.00
2023-04-16T04:25:15.392Z,100.00
2023-04-16T04:28:22.944Z,100.00
2023-04-16T04:31:29.158Z,100.00
2023-04-16T04:34:35.152Z,100.00
2023-04-16T04:37:41.166Z,100.00
2023-04-16T04:40:47.287Z,100.00
2023-04-16T04:43:54.783Z,100.00
2023-04-16T04:47:01.154Z,100.00
2023-04-16T04:50:08.613Z,100.00
2023-04-16T04:53:15.141Z,100.00
2023-04-16T04:56:21.365Z,100.00
2023-04-16T04:59:28.746Z,100.00
2023-04-16T05:02:35.153Z,100.00
2023-04-16T05:05:41.871Z,100.00
2023-04-16T05:08:47.957Z,100.00
2023-04-16T05:11:54.905Z,100.00
2023-04-16T05:15:02.439Z,100.00
2023-04-16T05:18:08.639Z,100.00
2023-04-16T05:21:15.080Z,100.00
2023-04-16T05:24:21.673Z,100.00
2023-04-16T05:27:28.020Z,100.00
2023-04-16T05:30:35.728Z,100.00
2023-04-16T05:33:42.219Z,100.00
2023-04-16T05:36:48.350Z,100.00
2023-04-16T05:39:54.468Z,100.00
2023-04-16T05:43:00.917Z,100.00
2023-04-16T05:46:08.313Z,100.00
2023-04-16T05:49:14.539Z,100.00
2023-04-16T05:52:20.478Z,100.00
2023-04-16T05:55:26.664Z,99.72
2023-04-16T05:58:32.901Z,94.07
2023-04-16T06:01:40.929Z,84.75
2023-04-16T06:04:47.416Z,77.54
2023-04-16T06:07:53.891Z,77.88
2023-04-16T06:10:59.994Z,74.40
2023-04-16T06:14:06.262Z,72.57
2023-04-16T06:17:13.698Z,70.08
2023-04-16T06:20:19.732Z,68.42
2023-04-16T06:23:26.273Z,67.79
2023-04-16T06:26:32.438Z,67.04
2023-04-16T06:29:41.710Z,68.71
2023-04-16T06:32:50.851Z,67.60
2023-04-16T06:35:56.953Z,69.56
2023-04-16T06:39:03.527Z,67.63
2023-04-16T06:42:09.738Z,60.83
2023-04-16T06:45:15.882Z,60.33
2023-04-16T06:48:23.668Z,61.89
2023-04-16T06:51:30.078Z,67.86
2023-04-16T06:54:36.484Z,64.79
2023-04-16T06:57:42.610Z,61.28
2023-04-16T07:00:48.767Z,56.90
2023-04-16T07:03:56.575Z,60.21
2023-04-16T07:07:03.090Z,60.31
2023-04-16T07:10:10.297Z,60.04
2023-04-16T07:13:16.550Z,59.81
2023-04-16T07:16:23.004Z,59.40
2023-04-16T07:19:32.820Z,58.37
2023-04-16T07:22:39.117Z,58.68
2023-04-16T07:25:45.998Z,56.68
2023-04-16T07:28:52.553Z,56.26
2023-04-16T07:31:59.172Z,57.56
2023-04-16T07:35:08.038Z,58.40
2023-04-16T07:38:14.804Z,54.76
2023-04-16T07:41:21.188Z,56.60
2023-04-16T07:44:27.871Z,55.53
2023-04-16T07:47:34.057Z,56.40
2023-04-16T07:50:43.637Z,53.70
2023-04-16T07:53:50.246Z,49.30
2023-04-16T07:56:56.493Z,51.21
2023-04-16T08:00:05.121Z,47.92
2023-04-16T08:03:11.517Z,46.95
2023-04-16T08:06:19.329Z,43.78
2023-04-16T08:09:28.736Z,44.41
2023-04-16T08:12:35.025Z,42.44
2023-04-16T08:15:41.940Z,39.95
2023-04-16T08:18:48.680Z,38.81
2023-04-16T08:21:57.208Z,39.60
2023-04-16T08:25:05.655Z,38.10
2023-04-16T08:28:11.927Z,40.94
2023-04-16T08:31:18.199Z,37.44
2023-04-16T08:34:24.481Z,36.67
2023-04-16T08:37:31.928Z,37.78
2023-04-16T08:40:41.572Z,36.42
2023-04-16T08:43:51.846Z,36.60
2023-04-16T08:46:59.309Z,35.51
2023-04-16T08:50:06.586Z,36.57
2023-04-16T08:53:19.744Z,37.65
2023-04-16T08:56:27.164Z,36.49
2023-04-16T08:59:34.524Z,37.93
2023-04-16T09:02:41.281Z,38.57
2023-04-16T09:05:48.216Z,36.93
2023-04-16T09:08:58.261Z,37.29
2023-04-16T09:12:05.961Z,36.78
2023-04-16T09:15:13.663Z,34.55
2023-04-16T09:18:20.511Z,35.46
2023-04-16T09:21:28.219Z,36.81
2023-04-16T09:24:38.671Z,35.05
2023-04-16T09:27:45.595Z,35.31
2023-04-16T09:30:51.899Z,35.61
2023-04-16T09:34:05.660Z,36.42
2023-04-16T09:37:18.850Z,37.85
2023-04-16T09:40:31.400Z,36.73
2023-04-16T09:43:38.418Z,36.11
2023-04-16T09:46:44.996Z,35.62
2023-04-16T09:49:51.449Z,35.69
2023-04-16T09:52:57.800Z,37.47
2023-04-16T09:56:07.855Z,35.27
2023-04-16T09:59:18.826Z,35.02
2023-04-16T10:02:28.800Z,35.96
2023-04-16T10:05:35.319Z,35.63
2023-04-16T10:08:45.144Z,33.81
2023-04-16T10:11:53.129Z,34.24
2023-04-16T10:14:59.248Z,35.12
2023-04-16T10:18:06.568Z,34.67
2023-04-16T10:21:13.354Z,35.20
2023-04-16T10:24:19.952Z,36.05
2023-04-16T10:27:28.523Z,35.85
2023-04-16T10:30:35.081Z,35.57
2023-04-16T10:33:42.791Z,34.94
2023-04-16T10:36:50.857Z,36.05
2023-04-16T10:39:57.240Z,35.78
2023-04-16T10:43:08.110Z,38.63
2023-04-16T10:46:22.837Z,38.07
2023-04-16T10:49:29.518Z,38.10
2023-04-16T10:52:35.855Z,40.77
2023-04-16T10:55:42.319Z,40.48
2023-04-16T10:58:50.558Z,40.46
2023-04-16T11:01:59.794Z,39.70
2023-04-16T11:05:06.733Z,39.32
2023-04-16T11:08:16.179Z,41.70
2023-04-16T11:11:22.606Z,40.33
2023-04-16T11:14:30.524Z,42.51
2023-04-16T11:17:40.214Z,41.66
2023-04-16T11:20:46.854Z,42.07
2023-04-16T11:23:54.770Z,41.65
2023-04-16T11:27:01.811Z,42.08
2023-04-16T11:30:10.607Z,40.54
2023-04-16T11:33:16.920Z,41.33
2023-04-16T11:36:25.469Z,42.77
2023-04-16T11:39:33.393Z,43.09
2023-04-16T11:42:41.172Z,43.54
2023-04-16T11:45:59.860Z,44.65
2023-04-16T11:49:05.654Z,42.81
2023-04-16T11:52:12.456Z,44.22
2023-04-16T11:55:19.138Z,43.98
2023-04-16T11:58:25.878Z,42.67
2023-04-16T12:01:35.074Z,42.21
2023-04-16T12:04:42.529Z,41.33
2023-04-16T12:07:48.746Z,42.13
2023-04-16T12:10:56.634Z,41.76
2023-04-16T12:14:09.813Z,41.80
2023-04-16T12:17:22.004Z,42.47
2023-04-16T12:20:28.405Z,41.26
2023-04-16T12:23:35.705Z,43.81
2023-04-16T12:26:44.118Z,43.87
2023-04-16T12:30:05.408Z,45.45
2023-04-16T12:33:21.297Z,47.65
2023-04-16T12:36:27.816Z,50.14
2023-04-16T12:39:34.150Z,51.76
2023-04-16T12:42:40.467Z,57.53
2023-04-16T12:45:46.872Z,58.45
2023-04-16T12:48:54.435Z,60.30
2023-04-16T12:52:00.621Z,61.50
2023-04-16T12:55:07.824Z,65.42
2023-04-16T12:58:14.123Z,68.64
2023-04-16T13:01:21.127Z,67.67
2023-04-16T13:04:28.840Z,65.44
2023-04-16T13:07:35.986Z,64.98
2023-04-16T13:10:42.867Z,68.24
2023-04-16T13:13:49.242Z,72.90
2023-04-16T13:16:55.506Z,74.01
2023-04-16T13:20:03.392Z,73.49
2023-04-16T13:23:09.985Z,75.53
2023-04-16T13:26:17.560Z,76.17
2023-04-16T13:29:24.297Z,74.71
2023-04-16T13:32:30.881Z,75.89
2023-04-16T13:35:38.870Z,78.22
2023-04-16T13:38:45.925Z,79.94
2023-04-16T13:41:52.546Z,84.59
2023-04-16T13:44:59.159Z,87.71
2023-04-16T13:48:05.946Z,84.17
2023-04-16T13:51:15.452Z,87.03
2023-04-16T13:57:45.081Z,85.10
2023-04-16T14:00:51.335Z,84.39
2023-04-16T14:03:57.413Z,84.07
2023-04-16T14:07:05.020Z,83.35
2023-04-16T14:10:12.117Z,85.62
2023-04-16T14:13:18.292Z,87.20
2023-04-16T14:16:24.749Z,84.14
2023-04-16T14:19:32.092Z,84.46
2023-04-16T14:22:40.071Z,82.98
2023-04-16T14:25:46.449Z,83.20
2023-04-16T14:28:52.791Z,85.49
2023-04-16T14:31:59.258Z,85.02
2023-04-16T14:35:06.728Z,84.47
2023-04-16T14:38:14.493Z,86.27
2023-04-16T14:41:20.927Z,85.25
2023-04-16T14:44:27.349Z,83.71
2023-04-16T14:47:33.916Z,83.46
2023-04-16T14:50:43.745Z,83.90
2023-04-16T14:53:51.486Z,83.38
2023-04-16T14:56:57.819Z,83.74
2023-04-16T15:00:07.924Z,81.34
2023-04-16T15:03:14.269Z,79.80
2023-04-16T15:06:20.556Z,77.91
2023-04-16T15:09:28.586Z,77.53
2023-04-16T15:12:35.221Z,76.73
2023-04-16T15:15:41.430Z,76.28
2023-04-16T15:18:47.666Z,78.30
2023-04-16T15:21:53.854Z,76.88
2023-04-16T15:25:01.873Z,77.63
2023-04-16T15:28:08.095Z,81.57
2023-04-16T15:31:14.301Z,84.47
2023-04-16T15:34:20.621Z,85.12
2023-04-16T15:37:27.107Z,88.05
2023-04-16T15:40:34.679Z,93.21
2023-04-16T15:43:41.177Z,95.69
2023-04-16T15:46:48.535Z,94.11
2023-04-16T15:49:54.644Z,93.10
2023-04-16T15:53:00.800Z,95.12
2023-04-16T15:56:08.720Z,100.00
2023-04-16T15:59:15.168Z,98.15
2023-04-16T16:02:21.348Z,96.69
2023-04-16T16:05:27.761Z,92.29
2023-04-16T16:08:37.173Z,90.88
2023-04-16T16:11:45.085Z,92.19
2023-04-16T16:14:52.093Z,94.02
2023-04-16T16:17:58.790Z,93.87
2023-04-16T16:21:05.522Z,98.41
2023-04-16T16:24:12.248Z,100.00
2023-04-16T16:27:20.875Z,100.00
2023-04-16T16:30:27.429Z,100.00
2023-04-16T16:33:33.622Z,100.00
2023-04-16T16:36:39.942Z,100.00
2023-04-16T16:39:46.501Z,100.00
2023-04-16T16:42:54.145Z,100.00
2023-04-16T16:46:00.745Z,100.00
2023-04-16T16:49:09.408Z,100.00
2023-04-16T16:52:16.092Z,100.00
2023-04-16T16:55:22.516Z,100.00
2023-04-16T16:58:30.358Z,100.00
2023-04-16T17:01:36.849Z,100.00
2023-04-16T17:04:43.143Z,100.00
2023-04-16T17:07:49.272Z,100.00
2023-04-16T17:10:55.434Z,100.00
2023-04-16T17:14:03.295Z,100.00
2023-04-16T17:17:10.070Z,100.00
2023-04-16T17:20:16.567Z,100.00
2023-04-16T17:23:22.652Z,100.00
2023-04-16T17:26:29.128Z,100.00
2023-04-16T17:29:36.995Z,100.00
2023-04-16T17:32:43.504Z,100.00
2023-04-16T17:35:49.795Z,100.00
2023-04-16T17:38:56.359Z,100.00
2023-04-16T17:42:04.138Z,100.00
2023-04-16T17:45:13.213Z,100.00
2023-04-16T17:48:19.573Z,100.00
2023-04-16T17:51:26.024Z,100.00
2023-04-16T17:54:32.668Z,100.00
2023-04-16T17:57:38.944Z,100.00
2023-04-16T18:00:46.853Z,100.00
2023-04-16T18:03:53.478Z,100.00
2023-04-16T18:07:00.005Z,100.00
2023-04-16T18:10:07.062Z,100.00
2023-04-16T18:13:13.151Z,100.00
2023-04-16T18:16:22.612Z,100.00
2023-04-16T18:19:29.564Z,100.00
2023-04-16T18:22:35.904Z,100.00
2023-04-16T18:25:41.950Z,100.00
2023-04-16T18:28:48.126Z,100.00
2023-04-16T18:31:56.240Z,100.00
2023-04-16T18:35:02.386Z,100.00
2023-04-16T18:38:08.621Z,100.00
2023-04-16T18:41:18.359Z,100.00
2023-04-16T18:44:24.611Z,100.00
2023-04-16T18:47:32.292Z,100.00
2023-04-16T18:50:38.791Z,100.00
2023-04-16T18:53:45.850Z,100.00
2023-04-16T18:56:52.228Z,100.00
2023-04-16T18:59:58.263Z,100.00
2023-04-16T19:03:07.685Z,100.00
2023-04-16T19:06:14.264Z,100.00
2023-04-16T19:09:20.789Z,100.00
2023-04-16T19:12:27.076Z,100.00
2023-04-16T19:15:34.875Z,100.00
2023-04-16T19:18:42.934Z,100.00
2023-04-16T19:21:49.797Z,100.00
2023-04-16T19:24:55.972Z,100.00
2023-04-16T19:28:02.576Z,100.00
2023-04-16T19:31:09.965Z,100.00
2023-04-16T19:34:18.046Z,100.00
2023-04-16T19:37:24.414Z,100.00
2023-04-16T19:40:30.835Z,100.00
2023-04-16T19:43:37.186Z,100.00
2023-04-16T19:46:43.646Z,100.00
2023-04-16T19:49:51.283Z,100.00
2023-04-16T19:52:57.545Z,100.00
2023-04-16T19:56:03.675Z,100.00
2023-04-16T19:59:10.181Z,100.00
2023-04-16T20:02:16.901Z,100.00
2023-04-16T20:05:26.208Z,100.00
2023-04-16T20:08:32.116Z,100.00
2023-04-16T20:11:38.598Z,100.00
2023-04-16T20:14:44.995Z,100.00
2023-04-16T20:17:52.457Z,100.00
2023-04-16T20:21:04.739Z,100.00
2023-04-16T20:24:11.175Z,100.00
2023-04-16T20:27:19.532Z,100.00
2023-04-16T20:30:29.300Z,100.00
2023-04-16T20:33:35.503Z,100.00
2023-04-16T20:36:43.119Z,100.00
2023-04-16T20:39:50.202Z,100.00
2023-04-16T20:42:56.628Z,100.00
2023-04-16T20:46:03.111Z,100.00
2023-04-16T20:49:09.886Z,100.00
2023-04-16T20:52:17.926Z,100.00
2023-04-16T20:55:23.956Z,100.00
2023-04-16T20:58:30.698Z,100.00
2023-04-16T21:01:37.096Z,100.00
2023-04-16T21:04:43.420Z,100.00
2023-04-16T21:07:51.281Z,100.00
2023-04-16T21:10:58.215Z,100.00
2023-04-16T21:14:05.004Z,100.00
2023-04-16T21:17:11.086Z,100.00
2023-04-16T21:20:17.665Z,100.00
2023-04-16T21:23:25.518Z,100.00
2023-04-16T21:26:32.071Z,100.00
2023-04-16T21:29:38.326Z,100.00
2023-04-16T21:32:45.719Z,100.00
2023-04-16T21:35:55.369Z,100.00
2023-04-16T21:39:03.399Z,100.00
2023-04-16T21:42:09.743Z,100.00
2023-04-16T21:45:16.577Z,100.00
2023-04-16T21:48:22.639Z,100.00
2023-04-16T21:51:30.148Z,100.00
2023-04-16T21:54:37.697Z,100.00
2023-04-16T21:57:43.934Z,100.00
2023-04-16T22:00:51.236Z,100.00
2023-04-16T22:03:57.496Z,100.00
2023-04-16T22:07:03.665Z,100.00
2023-04-16T22:10:13.592Z,100.00
2023-04-16T22:13:22.871Z,100.00
2023-04-16T22:16:29.176Z,100.00
2023-04-16T22:19:37.420Z,100.00
2023-04-16T22:22:44.296Z,100.00
2023-04-16T22:25:52.305Z,100.00
2023-04-16T22:28:58.365Z,100.00
2023-04-16T22:32:04.602Z,100.00
2023-04-16T22:35:11.084Z,100.00
2023-04-16T22:38:17.649Z,100.00
2023-04-16T22:41:25.430Z,100.00
2023-04-16T22:44:31.431Z,100.00
2023-04-16T22:47:37.558Z,100.00
2023-04-16T22:50:48.768Z,100.00
2023-04-16T22:53:55.197Z,100.00
2023-04-16T22:57:02.558Z,100.00
2023-04-16T23:00:15.712Z,100.00
2023-04-16T23:03:22.122Z,100.00
2023-04-16T23:06:28.361Z,100.00
2023-04-16T23:09:34.644Z,100.00
2023-04-16T23:12:42.269Z,100.00
2023-04-16T23:15:48.506Z,100.00
2023-04-16T23:18:54.450Z,100.00
2023-04-16T23:22:00.359Z,100.00
2023-04-16T23:25:07.963Z,100.00
2023-04-16T23:28:15.913Z,100.00
2023-04-16T23:31:21.855Z,100.00
2023-04-16T23:34:28.022Z,100.00
2023-04-16T23:37:34.175Z,100.00
2023-04-16T23:40:40.469Z,100.00
2023-04-16T23:43:48.152Z,100.00
2023-04-16T23:46:54.303Z,100.00
2023-04-16T23:50:00.637Z,100.00
2023-04-16T23:53:06.720Z,100.00
2023-04-16T23:56:13.380Z,100.00
2023-04-16T23:59:21.162Z,100.00
